sensor_id;sensor_type;location;lat;lon;timestamp;pressure;altitude;pressure_sealevel;temperature;humidity
10718;BME280;13513;42.700;23.124;2023-03-19T00:01:41;93408.50;;;1.39;84.66
10718;BME280;13513;42.700;23.124;2023-03-19T00:04:11;93411.36;;;1.44;84.55
10718;BME280;13513;42.700;23.124;2023-03-19T00:06:43;93411.10;;;1.39;85.18
10718;BME280;13513;42.700;23.124;2023-03-19T00:09:13;93409.94;;;1.27;86.42
10718;BME280;13513;42.700;23.124;2023-03-19T00:11:44;93407.59;;;1.17;87.68
10718;BME280;13513;42.700;23.124;2023-03-19T00:14:13;93409.84;;;1.20;87.56
10718;BME280;13513;42.700;23.124;2023-03-19T00:16:44;93405.16;;;1.16;88.43
10718;BME280;13513;42.700;23.124;2023-03-19T00:19:15;93403.59;;;1.11;88.71
10718;BME280;13513;42.700;23.124;2023-03-19T00:21:46;93397.19;;;1.17;87.97
10718;BME280;13513;42.700;23.124;2023-03-19T00:24:19;93398.88;;;1.25;87.55
10718;BME280;13513;42.700;23.124;2023-03-19T00:26:50;93391.33;;;1.01;88.45
10718;BME280;13513;42.700;23.124;2023-03-19T00:29:21;93390.16;;;1.03;89.69
10718;BME280;13513;42.700;23.124;2023-03-19T00:31:52;93385.21;;;1.12;89.62
10718;BME280;13513;42.700;23.124;2023-03-19T00:34:23;93384.00;;;1.19;89.17
10718;BME280;13513;42.700;23.124;2023-03-19T00:36:54;93382.23;;;1.15;88.86
10718;BME280;13513;42.700;23.124;2023-03-19T00:39:25;93386.09;;;1.05;89.92
10718;BME280;13513;42.700;23.124;2023-03-19T00:41:55;93378.97;;;1.03;90.61
10718;BME280;13513;42.700;23.124;2023-03-19T00:44:26;93372.86;;;1.10;90.49
10718;BME280;13513;42.700;23.124;2023-03-19T00:46:57;93373.42;;;1.02;90.94
10718;BME280;13513;42.700;23.124;2023-03-19T00:49:28;93371.08;;;0.92;91.52
10718;BME280;13513;42.700;23.124;2023-03-19T00:51:59;93362.28;;;0.79;93.00
10718;BME280;13513;42.700;23.124;2023-03-19T00:54:30;93362.75;;;0.82;93.12
10718;BME280;13513;42.700;23.124;2023-03-19T00:57:00;93358.97;;;0.70;93.91
10718;BME280;13513;42.700;23.124;2023-03-19T00:59:31;93363.02;;;0.87;93.19
10718;BME280;13513;42.700;23.124;2023-03-19T01:02:03;93354.83;;;1.09;90.99
10718;BME280;13513;42.700;23.124;2023-03-19T01:04:34;93354.78;;;1.13;89.96
10718;BME280;13513;42.700;23.124;2023-03-19T01:07:05;93351.39;;;1.12;90.26
10718;BME280;13513;42.700;23.124;2023-03-19T01:09:35;93356.08;;;1.13;90.72
10718;BME280;13513;42.700;23.124;2023-03-19T01:12:07;93354.65;;;0.96;91.18
10718;BME280;13513;42.700;23.124;2023-03-19T01:14:37;93353.56;;;0.90;92.71
10718;BME280;13513;42.700;23.124;2023-03-19T01:17:08;93344.72;;;0.81;93.21
10718;BME280;13513;42.700;23.124;2023-03-19T01:19:39;93343.81;;;0.88;93.51
10718;BME280;13513;42.700;23.124;2023-03-19T01:22:10;93343.69;;;1.00;92.29
10718;BME280;13513;42.700;23.124;2023-03-19T01:24:41;93351.78;;;1.05;90.82
10718;BME280;13513;42.700;23.124;2023-03-19T01:27:13;93341.64;;;1.10;88.99
10718;BME280;13513;42.700;23.124;2023-03-19T01:29:43;93347.27;;;1.18;87.60
10718;BME280;13513;42.700;23.124;2023-03-19T01:32:15;93353.16;;;1.26;86.89
10718;BME280;13513;42.700;23.124;2023-03-19T01:34:45;93345.53;;;1.25;86.84
10718;BME280;13513;42.700;23.124;2023-03-19T01:37:16;93343.80;;;1.21;87.41
10718;BME280;13513;42.700;23.124;2023-03-19T01:39:47;93343.22;;;1.30;86.93
10718;BME280;13513;42.700;23.124;2023-03-19T01:42:18;93341.58;;;1.29;86.24
10718;BME280;13513;42.700;23.124;2023-03-19T01:44:49;93340.84;;;1.24;86.89
10718;BME280;13513;42.700;23.124;2023-03-19T01:47:31;93339.84;;;1.25;86.96
10718;BME280;13513;42.700;23.124;2023-03-19T01:50:01;93338.90;;;1.22;87.27
10718;BME280;13513;42.700;23.124;2023-03-19T01:52:33;93339.72;;;1.23;87.47
10718;BME280;13513;42.700;23.124;2023-03-19T01:55:05;93326.63;;;1.16;87.11
10718;BME280;13513;42.700;23.124;2023-03-19T01:57:36;93347.91;;;1.30;86.48
10718;BME280;13513;42.700;23.124;2023-03-19T02:00:08;93345.08;;;1.36;86.92
10718;BME280;13513;42.700;23.124;2023-03-19T02:02:40;93346.90;;;1.35;87.02
10718;BME280;13513;42.700;23.124;2023-03-19T02:05:15;93342.66;;;1.34;86.31
10718;BME280;13513;42.700;23.124;2023-03-19T02:07:46;93346.73;;;1.33;85.47
10718;BME280;13513;42.700;23.124;2023-03-19T02:10:18;93342.22;;;1.31;85.32
10718;BME280;13513;42.700;23.124;2023-03-19T02:12:49;93341.64;;;1.39;84.95
10718;BME280;13513;42.700;23.124;2023-03-19T02:15:20;93341.30;;;1.38;84.13
10718;BME280;13513;42.700;23.124;2023-03-19T02:17:57;93344.47;;;1.34;84.18
10718;BME280;13513;42.700;23.124;2023-03-19T02:23:34;93352.50;;;1.28;85.76
10718;BME280;13513;42.700;23.124;2023-03-19T02:26:07;93343.97;;;1.20;85.78
10718;BME280;13513;42.700;23.124;2023-03-19T02:28:39;93349.09;;;1.13;85.17
10718;BME280;13513;42.700;23.124;2023-03-19T02:31:10;93348.52;;;1.22;84.00
10718;BME280;13513;42.700;23.124;2023-03-19T02:33:41;93342.75;;;1.26;84.00
10718;BME280;13513;42.700;23.124;2023-03-19T02:36:16;93349.13;;;1.24;84.01
10718;BME280;13513;42.700;23.124;2023-03-19T02:38:48;93358.72;;;1.23;84.36
10718;BME280;13513;42.700;23.124;2023-03-19T02:41:19;93349.82;;;1.22;84.87
10718;BME280;13513;42.700;23.124;2023-03-19T02:43:50;93356.03;;;1.17;84.86
10718;BME280;13513;42.700;23.124;2023-03-19T02:46:21;93352.55;;;1.24;83.40
10718;BME280;13513;42.700;23.124;2023-03-19T02:48:52;93354.37;;;1.20;84.15
10718;BME280;13513;42.700;23.124;2023-03-19T02:51:23;93351.95;;;1.18;84.73
10718;BME280;13513;42.700;23.124;2023-03-19T02:53:54;93360.71;;;1.21;85.19
10718;BME280;13513;42.700;23.124;2023-03-19T02:56:25;93357.80;;;1.20;85.14
10718;BME280;13513;42.700;23.124;2023-03-19T02:58:56;93356.68;;;1.19;85.27
10718;BME280;13513;42.700;23.124;2023-03-19T03:01:27;93359.77;;;1.18;85.62
10718;BME280;13513;42.700;23.124;2023-03-19T03:03:56;93360.11;;;1.15;85.68
10718;BME280;13513;42.700;23.124;2023-03-19T03:06:27;93361.88;;;1.19;84.93
10718;BME280;13513;42.700;23.124;2023-03-19T03:08:58;93363.92;;;1.23;83.76
10718;BME280;13513;42.700;23.124;2023-03-19T03:11:29;93368.59;;;1.28;83.02
10718;BME280;13513;42.700;23.124;2023-03-19T03:14:00;93370.72;;;1.28;83.03
10718;BME280;13513;42.700;23.124;2023-03-19T03:16:31;93367.77;;;1.31;83.02
10718;BME280;13513;42.700;23.124;2023-03-19T03:19:02;93370.67;;;1.32;82.87
10718;BME280;13513;42.700;23.124;2023-03-19T03:21:33;93365.52;;;1.28;83.25
10718;BME280;13513;42.700;23.124;2023-03-19T03:24:06;93371.13;;;1.21;83.57
10718;BME280;13513;42.700;23.124;2023-03-19T03:26:36;93364.56;;;1.25;83.70
10718;BME280;13513;42.700;23.124;2023-03-19T03:29:08;93363.36;;;1.17;83.57
10718;BME280;13513;42.700;23.124;2023-03-19T03:31:39;93371.34;;;1.16;84.25
10718;BME280;13513;42.700;23.124;2023-03-19T03:34:09;93368.61;;;1.13;84.12
10718;BME280;13513;42.700;23.124;2023-03-19T03:36:40;93371.16;;;1.17;83.94
10718;BME280;13513;42.700;23.124;2023-03-19T03:39:11;93368.03;;;1.22;83.84
10718;BME280;13513;42.700;23.124;2023-03-19T03:41:44;93368.16;;;1.24;84.06
10718;BME280;13513;42.700;23.124;2023-03-19T03:44:15;93368.69;;;1.20;84.63
10718;BME280;13513;42.700;23.124;2023-03-19T03:46:46;93375.89;;;1.18;84.84
10718;BME280;13513;42.700;23.124;2023-03-19T03:49:17;93366.14;;;1.16;84.88
10718;BME280;13513;42.700;23.124;2023-03-19T03:51:47;93370.52;;;1.15;84.24
10718;BME280;13513;42.700;23.124;2023-03-19T03:54:18;93371.94;;;1.22;83.38
10718;BME280;13513;42.700;23.124;2023-03-19T03:56:49;93369.17;;;1.19;84.25
10718;BME280;13513;42.700;23.124;2023-03-19T03:59:20;93366.53;;;1.23;84.34
10718;BME280;13513;42.700;23.124;2023-03-19T04:01:50;93368.21;;;1.20;84.09
10718;BME280;13513;42.700;23.124;2023-03-19T04:04:21;93372.42;;;1.21;84.34
10718;BME280;13513;42.700;23.124;2023-03-19T04:06:52;93368.52;;;1.21;83.87
10718;BME280;13513;42.700;23.124;2023-03-19T04:09:23;93362.19;;;1.20;83.60
10718;BME280;13513;42.700;23.124;2023-03-19T04:11:54;93368.82;;;1.22;82.68
10718;BME280;13513;42.700;23.124;2023-03-19T04:14:26;93367.88;;;1.19;82.53
10718;BME280;13513;42.700;23.124;2023-03-19T04:16:57;93365.44;;;1.22;82.64
10718;BME280;13513;42.700;23.124;2023-03-19T04:19:28;93374.59;;;1.14;83.87
10718;BME280;13513;42.700;23.124;2023-03-19T04:21:59;93364.17;;;1.18;84.59
10718;BME280;13513;42.700;23.124;2023-03-19T04:24:30;93360.89;;;1.05;84.94
10718;BME280;13513;42.700;23.124;2023-03-19T04:27:02;93362.05;;;1.17;85.09
10718;BME280;13513;42.700;23.124;2023-03-19T04:29:33;93369.52;;;1.20;84.74
10718;BME280;13513;42.700;23.124;2023-03-19T04:32:05;93366.78;;;1.18;84.45
10718;BME280;13513;42.700;23.124;2023-03-19T04:34:35;93375.91;;;1.14;83.00
10718;BME280;13513;42.700;23.124;2023-03-19T04:37:06;93374.80;;;1.12;82.85
10718;BME280;13513;42.700;23.124;2023-03-19T04:39:37;93367.35;;;1.09;83.43
10718;BME280;13513;42.700;23.124;2023-03-19T04:42:08;93365.27;;;1.19;83.20
10718;BME280;13513;42.700;23.124;2023-03-19T04:44:39;93370.77;;;1.24;82.91
10718;BME280;13513;42.700;23.124;2023-03-19T04:47:10;93368.45;;;1.40;82.95
10718;BME280;13513;42.700;23.124;2023-03-19T04:49:41;93367.67;;;1.64;81.32
10718;BME280;13513;42.700;23.124;2023-03-19T04:52:11;93370.53;;;1.84;80.00
10718;BME280;13513;42.700;23.124;2023-03-19T04:54:42;93368.64;;;2.13;78.33
10718;BME280;13513;42.700;23.124;2023-03-19T04:57:13;93369.27;;;2.57;75.51
10718;BME280;13513;42.700;23.124;2023-03-19T04:59:44;93375.45;;;2.77;72.83
10718;BME280;13513;42.700;23.124;2023-03-19T05:02:15;93373.81;;;2.87;73.50
10718;BME280;13513;42.700;23.124;2023-03-19T05:04:45;93374.95;;;3.16;70.46
10718;BME280;13513;42.700;23.124;2023-03-19T05:07:16;93375.55;;;3.18;69.19
10718;BME280;13513;42.700;23.124;2023-03-19T05:09:47;93372.41;;;3.29;68.25
10718;BME280;13513;42.700;23.124;2023-03-19T05:12:18;93374.84;;;3.13;68.80
10718;BME280;13513;42.700;23.124;2023-03-19T05:14:48;93373.38;;;3.21;68.90
10718;BME280;13513;42.700;23.124;2023-03-19T05:17:19;93364.31;;;3.17;69.77
10718;BME280;13513;42.700;23.124;2023-03-19T05:19:51;93373.27;;;3.36;68.82
10718;BME280;13513;42.700;23.124;2023-03-19T05:22:22;93374.04;;;3.47;67.74
10718;BME280;13513;42.700;23.124;2023-03-19T05:24:53;93374.95;;;3.90;69.52
10718;BME280;13513;42.700;23.124;2023-03-19T05:27:25;93371.81;;;4.58;63.31
10718;BME280;13513;42.700;23.124;2023-03-19T05:30:00;93372.45;;;5.12;60.39
10718;BME280;13513;42.700;23.124;2023-03-19T05:32:30;93369.08;;;5.53;56.82
10718;BME280;13513;42.700;23.124;2023-03-19T05:35:00;93368.61;;;5.75;54.17
10718;BME280;13513;42.700;23.124;2023-03-19T05:37:31;93368.38;;;6.25;53.78
10718;BME280;13513;42.700;23.124;2023-03-19T05:40:03;93368.38;;;6.25;53.78
10718;BME280;13513;42.700;23.124;2023-03-19T05:42:33;93368.14;;;6.79;52.28
10718;BME280;13513;42.700;23.124;2023-03-19T05:45:04;93374.12;;;7.42;50.97
10718;BME280;13513;42.700;23.124;2023-03-19T05:47:33;93371.33;;;8.06;49.37
10718;BME280;13513;42.700;23.124;2023-03-19T05:50:06;93379.56;;;8.55;47.87
10718;BME280;13513;42.700;23.124;2023-03-19T05:52:38;93371.38;;;9.04;46.58
10718;BME280;13513;42.700;23.124;2023-03-19T05:55:09;93371.91;;;9.47;45.84
10718;BME280;13513;42.700;23.124;2023-03-19T05:57:39;93374.59;;;9.96;45.02
10718;BME280;13513;42.700;23.124;2023-03-19T06:00:11;93373.81;;;10.32;43.62
10718;BME280;13513;42.700;23.124;2023-03-19T06:02:41;93373.25;;;10.56;42.40
10718;BME280;13513;42.700;23.124;2023-03-19T06:05:14;93379.05;;;10.97;41.64
10718;BME280;13513;42.700;23.124;2023-03-19T06:07:46;93381.58;;;11.20;40.44
10718;BME280;13513;42.700;23.124;2023-03-19T06:10:17;93374.61;;;11.31;40.04
10718;BME280;13513;42.700;23.124;2023-03-19T06:12:48;93378.50;;;10.95;40.88
10718;BME280;13513;42.700;23.124;2023-03-19T06:15:19;93382.69;;;11.38;39.98
10718;BME280;13513;42.700;23.124;2023-03-19T06:17:50;93386.54;;;11.61;39.42
10718;BME280;13513;42.700;23.124;2023-03-19T06:20:21;93387.09;;;11.80;39.13
10718;BME280;13513;42.700;23.124;2023-03-19T06:22:52;93384.59;;;12.06;39.03
10718;BME280;13513;42.700;23.124;2023-03-19T06:25:22;93384.77;;;12.62;37.91
10718;BME280;13513;42.700;23.124;2023-03-19T06:27:53;93376.59;;;13.09;37.14
10718;BME280;13513;42.700;23.124;2023-03-19T06:30:24;93382.01;;;13.48;36.38
10718;BME280;13513;42.700;23.124;2023-03-19T06:32:55;93380.94;;;13.78;35.45
10718;BME280;13513;42.700;23.124;2023-03-19T06:35:26;93386.81;;;13.85;35.17
10718;BME280;13513;42.700;23.124;2023-03-19T06:37:57;93391.84;;;13.82;34.83
10718;BME280;13513;42.700;23.124;2023-03-19T06:40:28;93393.92;;;14.14;35.29
10718;BME280;13513;42.700;23.124;2023-03-19T06:42:59;93392.56;;;14.45;34.11
10718;BME280;13513;42.700;23.124;2023-03-19T06:45:30;93389.51;;;14.76;32.75
10718;BME280;13513;42.700;23.124;2023-03-19T06:48:01;93397.72;;;14.67;32.56
10718;BME280;13513;42.700;23.124;2023-03-19T06:50:32;93387.36;;;14.70;32.97
10718;BME280;13513;42.700;23.124;2023-03-19T06:53:04;93395.56;;;14.61;33.21
10718;BME280;13513;42.700;23.124;2023-03-19T06:55:34;93399.39;;;14.83;32.55
10718;BME280;13513;42.700;23.124;2023-03-19T06:58:06;93398.44;;;15.16;32.72
10718;BME280;13513;42.700;23.124;2023-03-19T07:00:36;93399.61;;;15.48;32.17
10718;BME280;13513;42.700;23.124;2023-03-19T07:03:06;93409.74;;;15.48;31.88
10718;BME280;13513;42.700;23.124;2023-03-19T07:05:37;93407.47;;;14.12;34.18
10718;BME280;13513;42.700;23.124;2023-03-19T07:08:08;93401.06;;;14.47;34.21
10718;BME280;13513;42.700;23.124;2023-03-19T07:10:38;93400.78;;;15.00;33.01
10718;BME280;13513;42.700;23.124;2023-03-19T07:13:08;93401.04;;;14.40;33.80
10718;BME280;13513;42.700;23.124;2023-03-19T07:15:39;93400.40;;;13.57;35.07
10718;BME280;13513;42.700;23.124;2023-03-19T07:18:12;93404.61;;;13.82;34.48
10718;BME280;13513;42.700;23.124;2023-03-19T07:20:43;93395.83;;;13.53;35.01
10718;BME280;13513;42.700;23.124;2023-03-19T07:23:15;93399.68;;;13.98;34.67
10718;BME280;13513;42.700;23.124;2023-03-19T07:25:44;93399.73;;;14.45;34.69
10718;BME280;13513;42.700;23.124;2023-03-19T07:28:15;93400.34;;;13.84;33.99
10718;BME280;13513;42.700;23.124;2023-03-19T07:30:45;93403.81;;;12.57;36.26
10718;BME280;13513;42.700;23.124;2023-03-19T07:33:16;93410.32;;;12.11;37.20
10718;BME280;13513;42.700;23.124;2023-03-19T07:35:47;93400.23;;;12.49;37.74
10718;BME280;13513;42.700;23.124;2023-03-19T07:38:18;93398.05;;;13.05;37.16
10718;BME280;13513;42.700;23.124;2023-03-19T07:40:51;93400.25;;;13.13;36.65
10718;BME280;13513;42.700;23.124;2023-03-19T07:43:22;93405.72;;;12.85;37.23
10718;BME280;13513;42.700;23.124;2023-03-19T07:45:53;93406.30;;;12.66;37.25
10718;BME280;13513;42.700;23.124;2023-03-19T07:48:26;93401.15;;;13.24;36.61
10718;BME280;13513;42.700;23.124;2023-03-19T07:50:58;93408.44;;;13.99;35.43
10718;BME280;13513;42.700;23.124;2023-03-19T07:53:28;93406.67;;;14.46;36.11
10718;BME280;13513;42.700;23.124;2023-03-19T07:55:59;93405.77;;;15.76;33.56
10718;BME280;13513;42.700;23.124;2023-03-19T07:58:30;93398.51;;;17.35;32.35
10718;BME280;13513;42.700;23.124;2023-03-19T08:01:01;93403.17;;;17.63;30.23
10718;BME280;13513;42.700;23.124;2023-03-19T08:03:32;93409.28;;;17.69;31.13
10718;BME280;13513;42.700;23.124;2023-03-19T08:06:03;93403.52;;;18.81;30.53
10718;BME280;13513;42.700;23.124;2023-03-19T08:08:34;93407.31;;;19.67;29.07
10718;BME280;13513;42.700;23.124;2023-03-19T08:11:05;93402.09;;;19.94;28.05
10718;BME280;13513;42.700;23.124;2023-03-19T08:13:36;93402.42;;;19.90;28.39
10718;BME280;13513;42.700;23.124;2023-03-19T08:16:07;93404.19;;;19.59;27.81
10718;BME280;13513;42.700;23.124;2023-03-19T08:18:39;93402.03;;;17.26;29.92
10718;BME280;13513;42.700;23.124;2023-03-19T08:21:11;93405.55;;;18.65;29.36
10718;BME280;13513;42.700;23.124;2023-03-19T08:23:42;93408.26;;;19.12;28.82
10718;BME280;13513;42.700;23.124;2023-03-19T08:26:12;93411.41;;;18.08;30.18
10718;BME280;13513;42.700;23.124;2023-03-19T08:28:42;93408.50;;;18.02;29.73
10718;BME280;13513;42.700;23.124;2023-03-19T08:31:14;93407.45;;;17.03;32.03
10718;BME280;13513;42.700;23.124;2023-03-19T08:33:44;93400.81;;;18.83;29.51
10718;BME280;13513;42.700;23.124;2023-03-19T08:36:15;93400.98;;;19.57;28.74
10718;BME280;13513;42.700;23.124;2023-03-19T08:38:46;93401.55;;;18.89;28.34
10718;BME280;13513;42.700;23.124;2023-03-19T08:41:17;93406.11;;;17.08;30.60
10718;BME280;13513;42.700;23.124;2023-03-19T08:43:48;93403.83;;;18.77;28.50
10718;BME280;13513;42.700;23.124;2023-03-19T08:46:19;93408.98;;;19.41;28.59
10718;BME280;13513;42.700;23.124;2023-03-19T08:48:49;93404.77;;;20.76;26.42
10718;BME280;13513;42.700;23.124;2023-03-19T08:51:19;93397.08;;;21.78;26.14
10718;BME280;13513;42.700;23.124;2023-03-19T08:53:51;93394.60;;;23.11;24.11
10718;BME280;13513;42.700;23.124;2023-03-19T08:56:22;93389.52;;;23.21;24.32
10718;BME280;13513;42.700;23.124;2023-03-19T08:58:55;93391.80;;;23.89;23.30
10718;BME280;13513;42.700;23.124;2023-03-19T09:01:26;93386.36;;;23.27;24.42
10718;BME280;13513;42.700;23.124;2023-03-19T09:03:57;93386.67;;;23.90;22.78
10718;BME280;13513;42.700;23.124;2023-03-19T09:06:27;93393.56;;;25.10;22.53
10718;BME280;13513;42.700;23.124;2023-03-19T09:08:56;93382.91;;;25.28;20.79
10718;BME280;13513;42.700;23.124;2023-03-19T09:11:27;93381.43;;;24.93;20.88
10718;BME280;13513;42.700;23.124;2023-03-19T09:13:57;93376.36;;;24.09;22.41
10718;BME280;13513;42.700;23.124;2023-03-19T09:16:29;93370.97;;;24.35;22.21
10718;BME280;13513;42.700;23.124;2023-03-19T09:19:00;93371.19;;;25.16;22.05
10718;BME280;13513;42.700;23.124;2023-03-19T09:21:31;93370.64;;;26.77;19.60
10718;BME280;13513;42.700;23.124;2023-03-19T09:24:02;93376.59;;;27.84;19.09
10718;BME280;13513;42.700;23.124;2023-03-19T09:26:33;93369.46;;;28.70;18.44
10718;BME280;13513;42.700;23.124;2023-03-19T09:29:03;93363.88;;;29.53;18.01
10718;BME280;13513;42.700;23.124;2023-03-19T09:31:33;93362.47;;;31.01;17.00
10718;BME280;13513;42.700;23.124;2023-03-19T09:34:05;93352.69;;;32.55;15.99
10718;BME280;13513;42.700;23.124;2023-03-19T09:36:37;93361.03;;;33.72;14.68
10718;BME280;13513;42.700;23.124;2023-03-19T09:39:07;93356.37;;;34.26;14.17
10718;BME280;13513;42.700;23.124;2023-03-19T09:41:50;93355.14;;;34.20;14.09
10718;BME280;13513;42.700;23.124;2023-03-19T09:44:22;93358.24;;;34.39;13.95
10718;BME280;13513;42.700;23.124;2023-03-19T09:47:02;93348.70;;;36.26;12.65
10718;BME280;13513;42.700;23.124;2023-03-19T09:49:32;93346.84;;;36.70;12.23
10718;BME280;13513;42.700;23.124;2023-03-19T09:52:12;93344.76;;;36.27;12.40
10718;BME280;13513;42.700;23.124;2023-03-19T09:54:48;93346.52;;;36.25;12.41
10718;BME280;13513;42.700;23.124;2023-03-19T09:57:19;93341.34;;;36.56;12.20
10718;BME280;13513;42.700;23.124;2023-03-19T09:59:50;93340.61;;;37.74;11.68
10718;BME280;13513;42.700;23.124;2023-03-19T10:02:39;93338.45;;;38.21;11.39
10718;BME280;13513;42.700;23.124;2023-03-19T10:08:08;93330.59;;;36.35;12.31
10718;BME280;13513;42.700;23.124;2023-03-19T10:14:17;93330.81;;;34.15;13.18
10718;BME280;13513;42.700;23.124;2023-03-19T10:16:11;93326.89;;;31.39;14.79
10718;BME280;13513;42.700;23.124;2023-03-19T10:18:41;93327.06;;;26.94;17.71
10718;BME280;13513;42.700;23.124;2023-03-19T10:21:15;93322.94;;;23.55;20.71
10718;BME280;13513;42.700;23.124;2023-03-19T10:23:49;93330.97;;;20.28;25.36
10718;BME280;13513;42.700;23.124;2023-03-19T10:26:21;93324.25;;;18.30;28.16
10718;BME280;13513;42.700;23.124;2023-03-19T10:31:52;93316.81;;;16.78;31.38
10718;BME280;13513;42.700;23.124;2023-03-19T10:34:33;93310.68;;;16.75;30.96
10718;BME280;13513;42.700;23.124;2023-03-19T10:37:15;93311.87;;;16.39;30.54
10718;BME280;13513;42.700;23.124;2023-03-19T10:39:46;93299.42;;;15.09;33.00
10718;BME280;13513;42.700;23.124;2023-03-19T10:45:19;93297.09;;;15.40;34.40
10718;BME280;13513;42.700;23.124;2023-03-19T10:47:51;93296.50;;;15.16;33.51
10718;BME280;13513;42.700;23.124;2023-03-19T10:58:29;93275.73;;;17.87;31.94
10718;BME280;13513;42.700;23.124;2023-03-19T11:01:10;93269.91;;;17.11;31.16
10718;BME280;13513;42.700;23.124;2023-03-19T11:08:59;93251.45;;;19.36;28.44
10718;BME280;13513;42.700;23.124;2023-03-19T11:11:43;93239.36;;;20.59;27.07
10718;BME280;13513;42.700;23.124;2023-03-19T11:17:04;93233.59;;;22.16;24.73
10718;BME280;13513;42.700;23.124;2023-03-19T11:19:40;93225.13;;;22.51;23.98
10718;BME280;13513;42.700;23.124;2023-03-19T11:22:31;93226.30;;;21.86;24.14
10718;BME280;13513;42.700;23.124;2023-03-19T11:25:17;93218.44;;;21.32;25.49
10718;BME280;13513;42.700;23.124;2023-03-19T11:30:37;93228.62;;;18.83;28.46
10718;BME280;13513;42.700;23.124;2023-03-19T11:33:17;93221.38;;;19.04;29.19
10718;BME280;13513;42.700;23.124;2023-03-19T11:41:28;93198.29;;;22.18;24.79
10718;BME280;13513;42.700;23.124;2023-03-19T11:44:09;93192.97;;;22.82;24.97
10718;BME280;13513;42.700;23.124;2023-03-19T11:46:41;93190.00;;;22.06;24.75
10718;BME280;13513;42.700;23.124;2023-03-19T11:52:15;93171.41;;;23.36;23.25
10718;BME280;13513;42.700;23.124;2023-03-19T11:55:10;93175.81;;;23.15;23.68
10718;BME280;13513;42.700;23.124;2023-03-19T11:58:02;93178.59;;;23.64;22.83
10718;BME280;13513;42.700;23.124;2023-03-19T12:00:35;93162.20;;;25.19;22.42
10718;BME280;13513;42.700;23.124;2023-03-19T12:06:24;93164.73;;;24.74;22.69
10718;BME280;13513;42.700;23.124;2023-03-19T12:09:11;93161.52;;;24.95;23.42
10718;BME280;13513;42.700;23.124;2023-03-19T12:11:52;93170.09;;;23.08;23.35
10718;BME280;13513;42.700;23.124;2023-03-19T12:17:34;93172.22;;;19.92;27.66
10718;BME280;13513;42.700;23.124;2023-03-19T12:20:18;93164.03;;;19.05;28.66
10718;BME280;13513;42.700;23.124;2023-03-19T12:22:58;93158.84;;;18.77;30.30
10718;BME280;13513;42.700;23.124;2023-03-19T12:28:17;93158.98;;;18.48;30.10
10718;BME280;13513;42.700;23.124;2023-03-19T12:33:51;93162.28;;;17.44;31.34
10718;BME280;13513;42.700;23.124;2023-03-19T12:36:22;93152.74;;;17.35;31.23
10718;BME280;13513;42.700;23.124;2023-03-19T12:38:56;93154.61;;;17.04;32.10
10718;BME280;13513;42.700;23.124;2023-03-19T12:41:23;93152.64;;;17.14;31.92
10718;BME280;13513;42.700;23.124;2023-03-19T12:44:12;93153.60;;;16.97;32.80
10718;BME280;13513;42.700;23.124;2023-03-19T12:47:07;93154.33;;;16.72;33.02
10718;BME280;13513;42.700;23.124;2023-03-19T12:49:48;93149.58;;;16.61;31.89
10718;BME280;13513;42.700;23.124;2023-03-19T12:52:40;93150.11;;;16.07;33.21
10718;BME280;13513;42.700;23.124;2023-03-19T12:57:57;93143.48;;;16.02;34.00
10718;BME280;13513;42.700;23.124;2023-03-19T13:03:17;93135.66;;;16.23;32.91
10718;BME280;13513;42.700;23.124;2023-03-19T13:06:03;93129.41;;;16.45;33.45
10718;BME280;13513;42.700;23.124;2023-03-19T13:08:34;93128.55;;;16.55;32.16
10718;BME280;13513;42.700;23.124;2023-03-19T13:11:07;93129.12;;;16.88;32.93
10718;BME280;13513;42.700;23.124;2023-03-19T13:13:47;93119.82;;;17.45;32.62
10718;BME280;13513;42.700;23.124;2023-03-19T13:16:27;93122.95;;;17.99;30.97
10718;BME280;13513;42.700;23.124;2023-03-19T13:21:48;93122.48;;;18.36;29.36
10718;BME280;13513;42.700;23.124;2023-03-19T13:24:26;93125.97;;;18.37;30.03
10718;BME280;13513;42.700;23.124;2023-03-19T13:26:58;93117.77;;;19.50;29.54
10718;BME280;13513;42.700;23.124;2023-03-19T13:29:31;93114.03;;;19.49;29.03
10718;BME280;13513;42.700;23.124;2023-03-19T13:32:06;93106.77;;;19.49;28.52
10718;BME280;13513;42.700;23.124;2023-03-19T13:34:37;93102.23;;;19.34;29.92
10718;BME280;13513;42.700;23.124;2023-03-19T13:37:18;93100.30;;;19.67;28.77
10718;BME280;13513;42.700;23.124;2023-03-19T13:39:48;93105.53;;;19.44;28.01
10718;BME280;13513;42.700;23.124;2023-03-19T13:42:36;93101.05;;;19.40;28.88
10718;BME280;13513;42.700;23.124;2023-03-19T13:47:53;93101.38;;;19.20;28.74
10718;BME280;13513;42.700;23.124;2023-03-19T13:50:26;93096.64;;;19.14;29.22
10718;BME280;13513;42.700;23.124;2023-03-19T13:53:21;93097.95;;;19.49;29.08
10718;BME280;13513;42.700;23.124;2023-03-19T13:56:02;93090.61;;;20.09;28.29
10718;BME280;13513;42.700;23.124;2023-03-19T13:58:27;93088.52;;;20.90;27.05
10718;BME280;13513;42.700;23.124;2023-03-19T14:01:35;93083.12;;;21.26;26.30
10718;BME280;13513;42.700;23.124;2023-03-19T14:04:26;93078.40;;;21.62;27.21
10718;BME280;13513;42.700;23.124;2023-03-19T14:07:19;93075.32;;;22.52;26.35
10718;BME280;13513;42.700;23.124;2023-03-19T14:09:36;93078.17;;;22.47;24.57
10718;BME280;13513;42.700;23.124;2023-03-19T14:14:55;93078.27;;;21.36;26.12
10718;BME280;13513;42.700;23.124;2023-03-19T14:17:35;93073.18;;;21.04;25.90
10718;BME280;13513;42.700;23.124;2023-03-19T14:20:20;93070.86;;;19.64;27.75
10718;BME280;13513;42.700;23.124;2023-03-19T14:22:52;93074.97;;;19.13;28.22
10718;BME280;13513;42.700;23.124;2023-03-19T14:25:22;93075.80;;;18.63;29.07
10718;BME280;13513;42.700;23.124;2023-03-19T14:27:55;93074.15;;;18.49;29.65
10718;BME280;13513;42.700;23.124;2023-03-19T14:30:43;93072.23;;;18.31;29.51
10718;BME280;13513;42.700;23.124;2023-03-19T14:33:13;93073.32;;;18.30;29.99